createdAt,value
2019-03-26T00:01:47.135Z,20.77
2019-03-26T00:04:17.974Z,15.27
2019-03-26T00:06:49.395Z,16.80
2019-03-26T00:09:19.952Z,12.73
2019-03-26T00:11:49.395Z,14.60
2019-03-26T00:14:20.030Z,11.53
2019-03-26T00:16:50.902Z,15.93
2019-03-26T00:19:29.613Z,12.17
2019-03-26T00:21:59.088Z,13.63
2019-03-26T00:24:28.968Z,19.90
2019-03-26T00:26:58.861Z,17.03
2019-03-26T00:29:28.691Z,18.40
2019-03-26T00:31:58.296Z,18.20
2019-03-26T00:34:27.878Z,18.87
2019-03-26T00:36:58.031Z,13.10
2019-03-26T00:39:28.888Z,16.37
2019-03-26T00:42:00.178Z,11.50
2019-03-26T00:44:30.551Z,15.73
2019-03-26T00:47:00.314Z,13.23
2019-03-26T00:49:32.936Z,12.27
2019-03-26T00:52:02.738Z,15.80
2019-03-26T00:54:32.206Z,20.13
2019-03-26T00:57:02.658Z,12.77
2019-03-26T00:59:32.809Z,14.70
2019-03-26T01:02:02.564Z,17.10
2019-03-26T01:04:33.568Z,13.50
2019-03-26T01:07:03.749Z,15.60
2019-03-26T01:09:33.302Z,14.40
2019-03-26T01:12:03.195Z,22.60
2019-03-26T01:14:33.351Z,11.83
2019-03-26T01:17:04.177Z,12.93
2019-03-26T01:19:34.840Z,10.33
2019-03-26T01:22:04.409Z,19.43
2019-03-26T01:24:34.816Z,20.90
2019-03-26T01:27:04.282Z,16.43
2019-03-26T01:29:34.354Z,19.20
2019-03-26T01:32:04.105Z,12.97
2019-03-26T01:34:45.496Z,23.60
2019-03-26T01:37:06.694Z,17.77
2019-03-26T01:39:36.761Z,19.53
2019-03-26T01:42:06.800Z,19.17
2019-03-26T01:44:36.508Z,17.10
2019-03-26T01:47:05.957Z,27.03
2019-03-26T01:49:36.343Z,22.20
2019-03-26T01:52:09.931Z,16.07
2019-03-26T01:54:39.563Z,22.60
2019-03-26T01:57:12.031Z,23.23
2019-03-26T01:59:41.938Z,14.97
2019-03-26T02:02:12.173Z,23.03
2019-03-26T02:04:43.408Z,21.10
2019-03-26T02:07:13.454Z,18.90
2019-03-26T02:09:43.245Z,19.60
2019-03-26T02:12:14.499Z,14.33
2019-03-26T02:14:44.684Z,21.20
2019-03-26T02:17:14.229Z,20.67
2019-03-26T02:19:44.467Z,27.23
2019-03-26T02:22:14.234Z,20.77
2019-03-26T02:24:44.082Z,24.67
2019-03-26T02:27:17.132Z,25.73
2019-03-26T02:29:49.284Z,23.73
2019-03-26T02:32:19.882Z,31.47
2019-03-26T02:34:49.816Z,36.63
2019-03-26T02:37:19.599Z,22.17
2019-03-26T02:39:49.490Z,18.73
2019-03-26T02:42:19.746Z,34.17
2019-03-26T02:44:49.484Z,20.63
2019-03-26T02:47:19.628Z,14.83
2019-03-26T02:49:49.232Z,18.93
2019-03-26T02:52:19.502Z,20.73
2019-03-26T02:54:49.104Z,28.67
2019-03-26T02:57:20.667Z,26.17
2019-03-26T02:59:50.766Z,17.63
2019-03-26T03:02:20.635Z,19.53
2019-03-26T03:04:51.317Z,21.03
2019-03-26T03:07:21.042Z,14.37
2019-03-26T03:09:50.944Z,14.43
2019-03-26T03:12:21.300Z,30.40
2019-03-26T03:14:52.692Z,18.27
2019-03-26T03:17:22.603Z,26.10
2019-03-26T03:19:53.196Z,27.63
2019-03-26T03:22:23.914Z,25.97
2019-03-26T03:24:53.821Z,26.30
2019-03-26T03:27:26.449Z,17.90
2019-03-26T03:29:57.794Z,29.87
2019-03-26T03:32:32.180Z,18.83
2019-03-26T03:35:02.746Z,16.73
2019-03-26T03:37:32.672Z,19.20
2019-03-26T03:40:02.732Z,24.80
2019-03-26T03:42:32.299Z,18.90
2019-03-26T03:45:01.980Z,22.40
2019-03-26T03:47:34.371Z,13.10
2019-03-26T03:50:04.478Z,18.00
2019-03-26T03:52:46.161Z,16.60
2019-03-26T03:55:16.763Z,19.93
2019-03-26T03:57:52.566Z,14.33
2019-03-26T04:00:36.396Z,20.53
2019-03-26T04:03:09.153Z,27.80
2019-03-26T04:05:41.190Z,17.80
2019-03-26T04:08:11.050Z,21.07
2019-03-26T04:10:40.977Z,19.60
2019-03-26T04:13:11.464Z,23.37
2019-03-26T04:15:42.460Z,20.17
2019-03-26T04:18:15.461Z,17.57
2019-03-26T04:20:45.428Z,17.90
2019-03-26T04:23:17.949Z,17.90
2019-03-26T04:25:50.562Z,42.73
2019-03-26T04:28:20.232Z,12.37
2019-03-26T04:30:50.399Z,20.37
2019-03-26T04:33:21.165Z,15.83
2019-03-26T04:35:53.437Z,22.43
2019-03-26T04:38:24.235Z,17.27
2019-03-26T04:40:54.141Z,20.50
2019-03-26T04:43:25.119Z,17.27
2019-03-26T04:46:07.352Z,13.77
2019-03-26T04:52:21.539Z,13.77
2019-03-26T04:54:51.249Z,20.63
2019-03-26T04:57:21.105Z,11.80
2019-03-26T04:59:51.713Z,21.33
2019-03-26T05:02:22.250Z,16.17
2019-03-26T05:04:51.795Z,11.40
2019-03-26T05:07:24.922Z,8.40
2019-03-26T05:09:55.582Z,6.43
2019-03-26T05:12:25.870Z,11.70
2019-03-26T05:14:55.246Z,13.30
2019-03-26T05:17:24.822Z,12.33
2019-03-26T05:19:54.763Z,9.30
2019-03-26T05:22:24.704Z,18.10
2019-03-26T05:24:54.114Z,9.83
2019-03-26T05:33:41.233Z,6.60
2019-03-26T05:34:28.016Z,10.43
2019-03-26T05:36:58.330Z,12.77
2019-03-26T05:39:27.921Z,10.73
2019-03-26T05:41:57.593Z,16.50
2019-03-26T05:44:27.773Z,9.20
2019-03-26T05:46:58.175Z,9.10
2019-03-26T05:49:28.509Z,10.30
2019-03-26T05:51:58.019Z,5.43
2019-03-26T05:54:30.092Z,13.13
2019-03-26T05:57:00.746Z,6.33
2019-03-26T05:59:30.510Z,14.37
2019-03-26T06:06:10.240Z,7.47
2019-03-26T06:09:20.823Z,13.83
2019-03-26T06:11:51.558Z,20.20
2019-03-26T06:14:21.256Z,18.30
2019-03-26T06:16:57.351Z,10.30
2019-03-26T06:19:27.678Z,11.63
2019-03-26T06:21:56.997Z,14.83
2019-03-26T06:24:27.447Z,13.50
2019-03-26T06:26:58.056Z,15.30
2019-03-26T06:29:28.867Z,12.23
2019-03-26T06:31:58.901Z,13.83
2019-03-26T06:34:28.782Z,16.93
2019-03-26T06:36:59.152Z,20.47
2019-03-26T06:39:31.813Z,11.20
2019-03-26T06:42:01.321Z,7.63
2019-03-26T06:44:30.673Z,11.77
2019-03-26T06:47:00.175Z,15.03
2019-03-26T06:49:29.582Z,8.57
2019-03-26T06:51:59.741Z,18.10
2019-03-26T06:54:29.324Z,10.33
2019-03-26T06:56:59.262Z,12.20
2019-03-26T06:59:29.247Z,14.07
2019-03-26T07:01:58.785Z,13.53
2019-03-26T07:04:29.534Z,11.97
2019-03-26T07:06:59.347Z,7.53
2019-03-26T07:09:29.683Z,14.80
2019-03-26T07:11:59.157Z,8.50
2019-03-26T07:14:28.709Z,15.00
2019-03-26T07:16:59.163Z,18.27
2019-03-26T07:19:29.080Z,13.13
2019-03-26T07:21:59.574Z,16.17
2019-03-26T07:24:30.070Z,11.87
2019-03-26T07:26:59.847Z,14.57
2019-03-26T07:29:29.365Z,12.90
2019-03-26T07:31:59.904Z,14.37
2019-03-26T07:34:29.979Z,13.07
2019-03-26T07:36:59.814Z,15.50
2019-03-26T07:39:30.125Z,12.90
2019-03-26T07:42:03.781Z,18.27
2019-03-26T07:44:36.225Z,17.20
2019-03-26T07:47:06.093Z,10.30
2019-03-26T07:49:35.826Z,18.57
2019-03-26T07:52:06.282Z,17.73
2019-03-26T07:54:36.438Z,14.53
2019-03-26T07:57:05.932Z,21.03
2019-03-26T07:59:35.966Z,21.27
2019-03-26T08:02:06.498Z,12.73
2019-03-26T08:04:36.704Z,19.37
2019-03-26T08:07:06.631Z,12.47
2019-03-26T08:09:36.306Z,12.83
2019-03-26T08:12:06.317Z,18.70
2019-03-26T08:14:36.571Z,16.80
2019-03-26T08:17:06.208Z,13.53
2019-03-26T08:19:36.762Z,14.43
2019-03-26T08:22:06.485Z,6.93
2019-03-26T08:24:36.085Z,15.03
2019-03-26T08:27:08.520Z,19.60
2019-03-26T08:29:38.163Z,16.83
2019-03-26T08:32:08.714Z,9.60
2019-03-26T08:34:38.191Z,14.73
2019-03-26T08:37:08.593Z,11.90
2019-03-26T08:39:39.101Z,5.67
2019-03-26T08:42:09.252Z,8.33
2019-03-26T08:44:41.937Z,12.37
2019-03-26T08:47:11.866Z,13.83
2019-03-26T08:49:42.288Z,8.50
2019-03-26T08:52:12.661Z,17.03
2019-03-26T08:54:42.771Z,7.60
2019-03-26T08:57:13.405Z,11.43
2019-03-26T08:59:43.379Z,8.00
2019-03-26T09:02:14.286Z,6.97
2019-03-26T09:04:44.613Z,5.77
2019-03-26T09:07:14.552Z,7.07
2019-03-26T09:09:46.331Z,6.70
2019-03-26T09:12:16.341Z,10.13
2019-03-26T09:14:48.292Z,8.03
2019-03-26T09:17:19.971Z,12.27
2019-03-26T09:19:50.266Z,12.70
2019-03-26T09:22:21.221Z,8.90
2019-03-26T09:24:52.021Z,12.67
2019-03-26T09:27:22.105Z,8.93
2019-03-26T09:29:52.503Z,5.83
2019-03-26T09:32:22.861Z,6.17
2019-03-26T09:34:52.776Z,7.53
2019-03-26T09:37:22.741Z,10.60
2019-03-26T09:39:53.165Z,7.97
2019-03-26T09:42:22.753Z,8.67
2019-03-26T09:44:52.629Z,8.00
2019-03-26T09:47:22.777Z,7.23
2019-03-26T09:49:52.280Z,7.83
2019-03-26T09:52:22.173Z,5.87
2019-03-26T09:54:51.869Z,12.77
2019-03-26T09:57:21.571Z,10.73
2019-03-26T09:59:51.704Z,5.27
2019-03-26T10:02:21.791Z,5.77
2019-03-26T10:05:00.777Z,12.23
2019-03-26T10:07:30.340Z,8.87
2019-03-26T10:10:00.560Z,9.10
2019-03-26T10:12:30.446Z,4.67
2019-03-26T10:15:00.353Z,10.27
2019-03-26T10:17:30.637Z,5.23
2019-03-26T10:20:02.552Z,6.57
2019-03-26T10:22:32.639Z,5.83
2019-03-26T10:25:04.796Z,6.67
2019-03-26T10:27:35.307Z,9.20
2019-03-26T10:30:05.902Z,9.10
2019-03-26T10:32:37.055Z,10.57
2019-03-26T10:35:07.154Z,5.63
2019-03-26T10:37:37.023Z,6.90
2019-03-26T10:40:09.440Z,7.80
2019-03-26T10:42:39.607Z,6.50
2019-03-26T10:45:09.876Z,9.07
2019-03-26T10:47:39.966Z,3.77
2019-03-26T10:50:10.065Z,5.57
2019-03-26T10:52:44.027Z,7.93
2019-03-26T10:55:14.055Z,7.00
2019-03-26T10:57:44.004Z,5.90
2019-03-26T11:00:14.477Z,7.30
2019-03-26T11:02:44.373Z,10.37
2019-03-26T11:05:15.722Z,6.07
2019-03-26T11:07:46.316Z,9.93
2019-03-26T11:10:16.456Z,8.83
2019-03-26T11:12:46.961Z,6.97
2019-03-26T11:15:16.643Z,11.13
2019-03-26T11:17:48.445Z,11.17
2019-03-26T11:20:19.705Z,10.63
2019-03-26T11:22:49.256Z,3.23
2019-03-26T11:25:19.419Z,5.97
2019-03-26T11:27:51.667Z,7.13
2019-03-26T11:30:21.346Z,4.80
2019-03-26T11:32:51.816Z,4.30
2019-03-26T11:35:21.378Z,8.03
2019-03-26T11:37:52.019Z,4.83
2019-03-26T11:40:24.795Z,7.87
2019-03-26T11:42:57.129Z,3.67
2019-03-26T11:45:27.509Z,4.27
2019-03-26T11:47:57.437Z,5.10
2019-03-26T11:50:27.876Z,7.10
2019-03-26T11:52:58.948Z,4.50
2019-03-26T11:55:28.689Z,3.67
2019-03-26T11:57:58.980Z,3.07
2019-03-26T12:00:31.998Z,3.33
2019-03-26T12:03:01.596Z,1.97
2019-03-26T12:05:31.456Z,1.70
2019-03-26T12:08:02.036Z,10.27
2019-03-26T12:10:32.447Z,2.70
2019-03-26T12:13:02.638Z,4.03
2019-03-26T12:15:35.463Z,4.10
2019-03-26T12:18:05.177Z,3.03
2019-03-26T12:20:36.980Z,6.70
2019-03-26T12:23:06.867Z,4.50
2019-03-26T12:25:37.127Z,4.83
2019-03-26T12:28:06.720Z,5.50
2019-03-26T12:30:39.073Z,6.53
2019-03-26T12:33:09.549Z,3.73
2019-03-26T12:35:39.690Z,2.40
2019-03-26T12:38:23.450Z,3.40
2019-03-26T12:40:54.391Z,5.60
2019-03-26T12:43:24.232Z,4.23
2019-03-26T12:45:54.087Z,3.17
2019-03-26T12:48:23.760Z,4.53
2019-03-26T12:50:53.608Z,4.00
2019-03-26T12:53:23.538Z,6.93
2019-03-26T12:55:53.602Z,8.30
2019-03-26T12:58:31.637Z,7.67
2019-03-26T13:00:55.212Z,4.60
2019-03-26T13:03:24.698Z,4.87
2019-03-26T13:05:55.717Z,5.57
2019-03-26T13:08:28.783Z,8.90
2019-03-26T13:10:58.505Z,4.50
2019-03-26T13:13:39.321Z,6.17
2019-03-26T13:16:11.534Z,3.07
2019-03-26T13:18:41.174Z,5.03
2019-03-26T13:21:19.833Z,5.70
2019-03-26T13:23:49.894Z,5.47
2019-03-26T13:26:19.835Z,3.37
2019-03-26T13:28:50.599Z,11.07
2019-03-26T13:31:20.233Z,4.87
2019-03-26T13:33:52.168Z,8.33
2019-03-26T13:36:22.813Z,7.93
2019-03-26T13:49:41.744Z,5.77
2019-03-26T13:52:11.615Z,4.80
2019-03-26T13:54:41.303Z,2.47
2019-03-26T13:57:11.189Z,4.27
2019-03-26T13:59:41.382Z,8.33
2019-03-26T14:02:11.048Z,7.00
2019-03-26T14:04:41.659Z,6.83
2019-03-26T14:07:11.572Z,4.77
2019-03-26T14:09:43.456Z,6.17
2019-03-26T14:12:13.056Z,7.03
2019-03-26T14:14:43.666Z,5.00
2019-03-26T14:17:13.532Z,6.37
2019-03-26T14:19:43.295Z,3.63
2019-03-26T14:22:13.725Z,5.87
2019-03-26T14:24:43.732Z,5.47
2019-03-26T14:27:13.446Z,5.93
2019-03-26T14:29:43.347Z,8.80
2019-03-26T14:32:13.614Z,8.93
2019-03-26T14:34:43.681Z,7.67
2019-03-26T14:37:13.250Z,6.97
2019-03-26T14:39:43.053Z,7.43
2019-03-26T14:42:13.547Z,9.93
2019-03-26T14:44:45.827Z,11.23
2019-03-26T14:47:15.541Z,12.00
2019-03-26T14:49:45.239Z,10.03
2019-03-26T14:52:15.104Z,4.73
2019-03-26T14:54:44.644Z,11.83
2019-03-26T14:57:15.263Z,8.17
2019-03-26T14:59:45.304Z,5.40
2019-03-26T15:02:15.191Z,7.70
2019-03-26T15:04:45.323Z,7.83
2019-03-26T15:07:15.090Z,4.70
2019-03-26T15:09:45.116Z,5.23
2019-03-26T15:12:16.105Z,6.17
2019-03-26T15:14:45.784Z,6.70
2019-03-26T15:17:17.880Z,2.50
2019-03-26T15:19:47.496Z,7.50
2019-03-26T15:22:17.010Z,10.63
2019-03-26T15:24:47.131Z,23.63
2019-03-26T15:27:16.468Z,12.17
2019-03-26T15:29:46.431Z,7.20
2019-03-26T15:32:16.031Z,3.27
2019-03-26T15:34:45.682Z,3.30
2019-03-26T15:37:15.879Z,5.97
2019-03-26T15:39:45.763Z,3.83
2019-03-26T15:42:15.834Z,3.37
2019-03-26T15:44:54.789Z,2.60
2019-03-26T15:47:30.613Z,5.10
2019-03-26T15:50:01.127Z,4.33
2019-03-26T15:52:36.715Z,4.60
2019-03-26T15:55:08.077Z,4.83
2019-03-26T15:57:41.556Z,1.37
2019-03-26T16:00:15.120Z,1.97
2019-03-26T16:02:48.476Z,4.67
2019-03-26T16:05:21.493Z,14.77
2019-03-26T16:07:53.002Z,7.40
2019-03-26T16:10:23.011Z,7.57
2019-03-26T16:12:53.172Z,7.93
2019-03-26T16:15:43.666Z,8.83
2019-03-26T16:18:05.708Z,8.53
2019-03-26T16:20:50.854Z,6.70
2019-03-26T16:23:19.848Z,6.13
2019-03-26T16:25:56.348Z,8.37
2019-03-26T16:28:26.308Z,10.33
2019-03-26T16:31:15.015Z,11.77
2019-03-26T16:33:45.541Z,9.00
2019-03-26T16:36:15.799Z,5.00
2019-03-26T16:38:46.422Z,12.23
2019-03-26T16:41:22.087Z,5.90
2019-03-26T16:43:52.714Z,5.27
2019-03-26T16:46:23.393Z,20.53
2019-03-26T16:48:53.265Z,10.40
2019-03-26T16:51:23.678Z,7.20
2019-03-26T16:53:54.187Z,4.93
2019-03-26T16:56:24.707Z,4.30
2019-03-26T16:58:55.263Z,4.03
2019-03-26T17:01:28.109Z,3.83
2019-03-26T17:04:00.993Z,4.23
2019-03-26T17:06:33.835Z,7.23
2019-03-26T17:09:09.647Z,3.20
2019-03-26T17:11:39.968Z,6.17
2019-03-26T17:14:13.635Z,3.50
2019-03-26T17:16:48.190Z,3.83
2019-03-26T17:19:20.464Z,2.40
2019-03-26T17:21:55.187Z,4.57
2019-03-26T17:24:31.185Z,7.53
2019-03-26T17:27:05.125Z,4.63
2019-03-26T17:29:35.552Z,7.90
2019-03-26T17:32:05.691Z,2.80
2019-03-26T17:34:44.055Z,4.47
2019-03-26T17:41:03.142Z,2.70
2019-03-26T17:43:46.604Z,2.17
2019-03-26T17:46:45.318Z,2.13
2019-03-26T17:49:15.216Z,10.00
2019-03-26T17:51:44.925Z,9.90
2019-03-26T17:54:16.602Z,2.47
2019-03-26T17:56:47.543Z,7.77
2019-03-26T17:59:17.965Z,2.67
2019-03-26T18:01:48.310Z,2.33
2019-03-26T18:04:19.329Z,2.37
2019-03-26T18:06:50.457Z,3.10
2019-03-26T18:09:40.853Z,5.13
2019-03-26T18:15:02.248Z,4.60
2019-03-26T18:17:34.059Z,1.57
2019-03-26T18:20:04.089Z,2.17
2019-03-26T18:22:34.202Z,1.70
2019-03-26T18:25:06.865Z,3.13
2019-03-26T18:27:37.582Z,3.03
2019-03-26T18:30:08.762Z,4.00
2019-03-26T18:32:38.882Z,3.17
2019-03-26T18:35:08.477Z,5.93
2019-03-26T18:37:38.646Z,4.27
2019-03-26T18:40:52.791Z,4.83
2019-03-26T18:43:22.681Z,4.27
2019-03-26T18:45:54.679Z,6.03
2019-03-26T18:48:24.964Z,4.53
2019-03-26T18:50:57.646Z,5.27
2019-03-26T18:53:30.699Z,10.83
2019-03-26T18:56:01.794Z,4.13
2019-03-26T18:58:32.801Z,10.03
2019-03-26T19:01:02.251Z,9.93
2019-03-26T19:03:32.190Z,8.83
2019-03-26T19:06:06.123Z,8.07
2019-03-26T19:08:35.837Z,9.53
2019-03-26T19:11:05.824Z,9.90
2019-03-26T19:13:35.708Z,10.87
2019-03-26T19:16:05.736Z,15.63
2019-03-26T19:18:35.910Z,31.50
2019-03-26T19:21:06.028Z,22.37
2019-03-26T19:23:36.742Z,23.63
2019-03-26T19:26:06.696Z,18.13
2019-03-26T19:28:36.802Z,14.80
2019-03-26T19:31:11.789Z,15.20
2019-03-26T19:33:41.893Z,19.83
2019-03-26T19:36:13.736Z,18.93
2019-03-26T19:38:43.678Z,15.70
2019-03-26T19:41:13.563Z,21.13
2019-03-26T19:43:49.430Z,23.40
2019-03-26T19:46:19.152Z,18.00
2019-03-26T19:48:49.244Z,26.27
2019-03-26T19:51:19.323Z,26.97
2019-03-26T19:53:49.530Z,27.33
2019-03-26T19:56:19.380Z,23.57
2019-03-26T19:58:49.463Z,26.53
2019-03-26T20:01:19.719Z,16.47
2019-03-26T20:03:49.886Z,27.47
2019-03-26T20:06:19.533Z,21.73
2019-03-26T20:08:49.433Z,27.30
2019-03-26T20:11:19.291Z,30.27
2019-03-26T20:13:49.309Z,20.67
2019-03-26T20:16:21.501Z,28.00
2019-03-26T20:18:51.224Z,22.57
2019-03-26T20:21:21.424Z,18.23
2019-03-26T20:23:51.875Z,21.87
2019-03-26T20:26:21.807Z,22.20
2019-03-26T20:28:51.978Z,23.80
2019-03-26T20:31:22.504Z,23.47
2019-03-26T20:33:52.642Z,29.17
2019-03-26T20:36:22.637Z,35.13
2019-03-26T20:38:52.997Z,27.50
2019-03-26T20:41:25.489Z,24.73
2019-03-26T20:43:59.705Z,31.47
2019-03-26T20:46:29.729Z,25.20
2019-03-26T20:48:59.523Z,23.23
2019-03-26T20:51:29.711Z,18.90
2019-03-26T20:53:59.696Z,20.90
2019-03-26T20:56:30.034Z,22.70
2019-03-26T20:59:00.853Z,25.17
2019-03-26T21:01:30.699Z,24.57
2019-03-26T21:04:01.060Z,26.50
2019-03-26T21:06:31.052Z,24.00
2019-03-26T21:09:01.221Z,22.00
2019-03-26T21:11:30.869Z,21.53
2019-03-26T21:14:00.626Z,15.77
2019-03-26T21:16:30.778Z,28.70
2019-03-26T21:19:00.889Z,28.37
2019-03-26T21:21:31.142Z,15.67
2019-03-26T21:24:02.866Z,22.73
2019-03-26T21:26:33.111Z,21.03
2019-03-26T21:29:02.725Z,21.70
2019-03-26T21:31:32.709Z,26.20
2019-03-26T21:34:02.922Z,23.57
2019-03-26T21:36:35.502Z,27.50
2019-03-26T21:39:07.165Z,20.50
2019-03-26T21:41:37.182Z,26.23
2019-03-26T21:44:07.058Z,23.90
2019-03-26T21:46:36.846Z,29.00
2019-03-26T21:49:07.024Z,21.53
2019-03-26T21:51:37.272Z,24.07
2019-03-26T21:54:07.225Z,23.67
2019-03-26T21:56:36.908Z,27.50
2019-03-26T21:59:06.785Z,28.10
2019-03-26T22:01:36.920Z,26.03
2019-03-26T22:04:06.800Z,24.67
2019-03-26T22:06:36.779Z,17.90
2019-03-26T22:09:08.375Z,17.30
2019-03-26T22:11:49.282Z,19.77
2019-03-26T22:14:17.892Z,22.37
2019-03-26T22:16:41.693Z,19.57
2019-03-26T22:19:11.552Z,19.13
2019-03-26T22:21:41.696Z,18.13
2019-03-26T22:24:12.009Z,27.77
2019-03-26T22:26:42.138Z,22.70
2019-03-26T22:29:13.354Z,16.40
2019-03-26T22:31:43.158Z,21.13
2019-03-26T22:34:13.406Z,21.37
2019-03-26T22:36:43.528Z,18.37
2019-03-26T22:39:13.633Z,23.20
2019-03-26T22:41:43.346Z,16.37
2019-03-26T22:44:13.483Z,25.77
2019-03-26T22:46:43.549Z,27.40
2019-03-26T22:49:13.119Z,25.60
2019-03-26T22:51:44.133Z,35.40
2019-03-26T22:54:14.277Z,17.03
2019-03-26T22:56:47.368Z,21.23
2019-03-26T22:59:17.513Z,18.93
2019-03-26T23:01:47.591Z,23.50
2019-03-26T23:04:19.863Z,18.53
2019-03-26T23:06:49.098Z,15.87
2019-03-26T23:09:18.768Z,19.13
2019-03-26T23:11:53.994Z,20.80
2019-03-26T23:14:23.800Z,19.07
2019-03-26T23:16:53.938Z,13.67
2019-03-26T23:19:23.974Z,15.50
2019-03-26T23:21:54.006Z,16.20
2019-03-26T23:24:23.768Z,19.13
2019-03-26T23:26:56.455Z,17.80
2019-03-26T23:29:29.648Z,16.57
2019-03-26T23:32:03.261Z,20.40
2019-03-26T23:34:33.591Z,23.13
2019-03-26T23:37:03.522Z,12.17
2019-03-26T23:39:36.097Z,13.53
2019-03-26T23:42:05.774Z,15.87
2019-03-26T23:44:36.926Z,16.83
2019-03-26T23:47:07.950Z,21.30
2019-03-26T23:49:38.312Z,13.40
2019-03-26T23:52:09.013Z,15.93
2019-03-26T23:54:38.651Z,23.07
2019-03-26T23:57:08.127Z,15.57
2019-03-26T23:59:38.043Z,20.03
